Time;durP1;ratioP1;P1;durP2;ratioP2;P2;SDS_P1;SDS_P2;PMS_P1;PMS_P2;Temp;Humidity;BMP_temperature;BMP_pressure;BME280_temperature;BME280_humidity;BME280_pressure;Samples;Min_cycle;Max_cycle;Signal;HPM_P1;HPM_P2
2023/01/16 00:02:01;;;;;;;8.88;2.38;;;;;;;;;;5046497;28;20614;-67
2023/01/16 00:04:28;;;;;;;10.95;4.35;;;;;;;;;;5045032;28;20394;-66
2023/01/16 00:06:54;;;;;;;24.67;13.77;;;;;;;;;;5052591;28;20058;-65
2023/01/16 00:09:20;;;;;;;14.05;7.85;;;;;;;;;;5043802;28;20482;-66
2023/01/16 00:11:47;;;;;;;11.48;5.72;;;;;;;;;;5050223;28;20565;-67
2023/01/16 00:14:13;;;;;;;8.85;3.38;;;;;;;;;;5042817;28;20032;-66
2023/01/16 00:16:40;;;;;;;8.63;3.33;;;;;;;;;;5049384;28;20348;-66
2023/01/16 00:19:06;;;;;;;7.50;2.83;;;;;;;;;;5044744;28;20486;-66
2023/01/16 00:21:32;;;;;;;;;;;;;;;;;;5048228;28;20999;-65
2023/01/16 00:23:59;;;;;;;8.98;2.92;;;;;;;;;;5050861;28;19924;-66
2023/01/16 00:26:26;;;;;;;10.48;3.17;;;;;;;;;;5047835;28;20024;-67
2023/01/16 00:28:52;;;;;;;10.15;2.85;;;;;;;;;;5048796;28;20036;-67
2023/01/16 00:31:18;;;;;;;10.50;3.17;;;;;;;;;;5041308;28;20071;-66
2023/01/16 00:33:44;;;;;;;10.38;3.08;;;;;;;;;;5049479;28;20046;-67
2023/01/16 00:36:11;;;;;;;7.97;2.33;;;;;;;;;;5045238;28;20215;-68
2023/01/16 00:38:37;;;;;;;9.88;3.33;;;;;;;;;;5050777;28;20032;-66
2023/01/16 00:41:05;;;;;;;9.90;2.63;;;;;;;;;;5046187;28;20324;-65
2023/01/16 00:43:31;;;;;;;7.85;2.47;;;;;;;;;;5047697;28;20037;-67
2023/01/16 00:45:57;;;;;;;8.88;2.53;;;;;;;;;;5048812;28;20067;-65
2023/01/16 00:48:24;;;;;;;9.07;2.50;;;;;;;;;;5045064;28;20032;-66
2023/01/16 00:50:50;;;;;;;;;;;;;;;;;;5047276;28;20508;-66
2023/01/16 00:53:16;;;;;;;9.60;2.30;;;;;;;;;;5042031;28;19920;-67
2023/01/16 00:55:42;;;;;;;7.70;2.00;;;;;;;;;;5048036;28;20032;-66
2023/01/16 00:58:09;;;;;;;7.72;2.17;;;;;;;;;;5040992;28;20592;-66
2023/01/16 01:00:35;;;;;;;6.53;1.80;;;;;;;;;;5050168;28;20027;-66
2023/01/16 01:03:02;;;;;;;8.68;1.70;;;;;;;;;;5047237;28;20031;-66
2023/01/16 01:05:28;;;;;;;9.13;1.95;;;;;;;;;;5045128;28;20477;-66
2023/01/16 01:07:54;;;;;;;8.82;1.70;;;;;;;;;;5045745;28;20028;-67
2023/01/16 01:10:20;;;;;;;10.10;2.00;;;;;;;;;;5047386;28;20105;-66
2023/01/16 01:12:47;;;;;;;9.32;2.17;;;;;;;;;;5047549;28;20835;-66
2023/01/16 01:15:13;;;;;;;9.93;2.85;;;;;;;;;;5040663;28;20040;-66
2023/01/16 01:17:39;;;;;;;;;;;;;;;;;;5049323;28;20153;-66
2023/01/16 01:20:05;;;;;;;7.95;1.52;;;;;;;;;;5040427;28;20444;-65
2023/01/16 01:22:31;;;;;;;;;;;;;;;;;;5047165;28;20098;-66
2023/01/16 01:24:57;;;;;;;10.73;3.10;;;;;;;;;;5047049;28;19915;-66
2023/01/16 01:27:24;;;;;;;10.45;3.38;;;;;;;;;;5043508;28;20016;-65
2023/01/16 01:29:50;;;;;;;8.60;3.05;;;;;;;;;;5046342;28;20040;-65
2023/01/16 01:32:16;;;;;;;8.27;1.95;;;;;;;;;;5039483;28;20407;-65
2023/01/16 01:34:42;;;;;;;9.20;2.45;;;;;;;;;;5048415;28;20065;-65
2023/01/16 01:37:08;;;;;;;9.77;3.00;;;;;;;;;;5040291;28;20210;-64
2023/01/16 01:39:35;;;;;;;11.27;2.33;;;;;;;;;;5051414;28;20680;-65
2023/01/16 01:44:46;;;;;;;9.50;2.00;;;;;;;;;;5047865;28;20035;-65
2023/01/16 01:47:13;;;;;;;9.07;2.70;;;;;;;;;;5045976;28;20032;-67
2023/01/16 01:49:39;;;;;;;7.93;2.10;;;;;;;;;;5045425;28;20024;-67
2023/01/16 01:52:05;;;;;;;;;;;;;;;;;;5047341;28;20027;-66
2023/01/16 01:54:37;;;;;;;8.93;2.53;;;;;;;;;;5045425;28;20779;-66
2023/01/16 01:57:07;;;;;;;7.85;1.88;;;;;;;;;;5046505;28;20129;-67
2023/01/16 01:59:35;;;;;;;8.15;2.72;;;;;;;;;;5049357;28;20043;-67
2023/01/16 02:02:02;;;;;;;7.10;2.10;;;;;;;;;;5047724;28;20545;-68
2023/01/16 02:04:34;;;;;;;7.88;2.28;;;;;;;;;;5047552;28;20113;-67
2023/01/16 02:07:06;;;;;;;8.20;2.63;;;;;;;;;;5045418;28;20029;-67
2023/01/16 02:09:33;;;;;;;7.35;2.20;;;;;;;;;;5046472;28;21411;-65
2023/01/16 02:12:04;;;;;;;6.32;1.65;;;;;;;;;;5050148;28;20059;-66
2023/01/16 02:14:32;;;;;;;11.63;2.50;;;;;;;;;;5049997;28;20105;-67
2023/01/16 02:19:55;;;;;;;6.32;1.40;;;;;;;;;;5048005;28;20110;-65
2023/01/16 02:22:24;;;;;;;7.00;2.28;;;;;;;;;;5046451;28;20031;-66
2023/01/16 02:25:00;;;;;;;6.18;1.55;;;;;;;;;;5046602;28;20031;-66
2023/01/16 02:27:26;;;;;;;7.55;1.70;;;;;;;;;;5045640;28;20480;-66
2023/01/16 02:30:08;;;;;;;7.35;1.58;;;;;;;;;;5047720;28;20558;-66
2023/01/16 02:32:34;;;;;;;5.20;1.15;;;;;;;;;;5043389;28;20032;-66
2023/01/16 02:35:07;;;;;;;6.47;1.05;;;;;;;;;;5047861;28;20094;-66
2023/01/16 02:37:41;;;;;;;6.18;1.40;;;;;;;;;;5047218;28;20575;-66
2023/01/16 02:40:10;;;;;;;6.75;1.30;;;;;;;;;;5046431;28;20036;-66
2023/01/16 02:42:43;;;;;;;4.53;0.90;;;;;;;;;;5049056;28;20055;-66
2023/01/16 02:45:09;;;;;;;6.70;1.30;;;;;;;;;;5042625;28;20446;-66
2023/01/16 02:47:41;;;;;;;6.75;1.20;;;;;;;;;;5044659;28;20107;-66
2023/01/16 02:50:11;;;;;;;6.25;1.13;;;;;;;;;;5040214;28;20028;-68
2023/01/16 02:52:40;;;;;;;5.53;1.25;;;;;;;;;;5046783;28;20255;-65
2023/01/16 02:55:08;;;;;;;7.47;1.50;;;;;;;;;;5048761;28;20071;-66
2023/01/16 02:57:39;;;;;;;5.53;1.10;;;;;;;;;;5051425;28;20039;-65
2023/01/16 03:00:07;;;;;;;6.82;1.23;;;;;;;;;;5041982;28;20028;-65
2023/01/16 03:02:33;;;;;;;6.47;1.20;;;;;;;;;;5048331;28;20470;-65
2023/01/16 03:04:59;;;;;;;6.47;1.08;;;;;;;;;;5046749;28;20035;-66
2023/01/16 03:07:35;;;;;;;10.15;1.20;;;;;;;;;;5042543;28;20845;-67
2023/01/16 03:10:04;;;;;;;8.05;1.38;;;;;;;;;;5044602;28;20066;-67
2023/01/16 03:12:42;;;;;;;6.93;1.20;;;;;;;;;;5053555;28;20068;-67
2023/01/16 03:15:11;;;;;;;10.07;1.38;;;;;;;;;;5046394;28;20032;-66
2023/01/16 03:17:41;;;;;;;10.00;1.40;;;;;;;;;;5045900;28;20032;-66
2023/01/16 03:20:25;;;;;;;5.80;1.55;;;;;;;;;;5047035;28;20072;-66
2023/01/16 03:23:10;;;;;;;7.68;1.70;;;;;;;;;;5044185;28;20032;-65
2023/01/16 03:25:48;;;;;;;8.82;1.40;;;;;;;;;;5048659;28;20036;-66
2023/01/16 03:28:35;;;;;;;9.20;1.70;;;;;;;;;;5041736;28;20348;-66
2023/01/16 03:31:27;;;;;;;7.43;1.38;;;;;;;;;;5040843;28;20056;-68
2023/01/16 03:33:58;;;;;;;6.93;1.40;;;;;;;;;;5043687;28;20036;-67
2023/01/16 03:36:32;;;;;;;11.50;1.30;;;;;;;;;;5040743;28;21645;-67
2023/01/16 03:39:00;;;;;;;8.70;1.42;;;;;;;;;;5051341;28;20024;-67
2023/01/16 03:41:28;;;;;;;8.00;1.27;;;;;;;;;;5045054;28;20440;-67
2023/01/16 03:43:59;;;;;;;8.50;1.15;;;;;;;;;;5043652;28;20363;-67
2023/01/16 03:46:45;;;;;;;7.53;1.48;;;;;;;;;;5043914;28;20159;-67
2023/01/16 03:49:14;;;;;;;8.15;1.33;;;;;;;;;;5040868;28;20036;-65
2023/01/16 03:51:46;;;;;;;12.65;1.55;;;;;;;;;;5043188;28;20043;-65
2023/01/16 03:54:21;;;;;;;8.10;1.67;;;;;;;;;;5042274;28;20047;-65
2023/01/16 03:56:52;;;;;;;6.38;1.20;;;;;;;;;;5046722;28;20127;-65
2023/01/16 03:59:19;;;;;;;9.43;1.40;;;;;;;;;;5050186;28;20070;-67
2023/01/16 04:01:45;;;;;;;;;;;;;;;;;;5047100;28;20040;-65
2023/01/16 04:04:30;;;;;;;10.18;1.40;;;;;;;;;;5050540;28;20386;-67
2023/01/16 04:07:05;;;;;;;7.97;1.38;;;;;;;;;;5054961;28;20031;-68
2023/01/16 04:09:41;;;;;;;6.38;1.30;;;;;;;;;;5051280;28;20031;-67
2023/01/16 04:12:08;;;;;;;9.38;1.63;;;;;;;;;;5050217;28;20111;-67
2023/01/16 04:14:35;;;;;;;6.43;1.33;;;;;;;;;;5049498;28;20102;-66
2023/01/16 04:17:03;;;;;;;8.00;1.15;;;;;;;;;;5052548;28;20035;-66
2023/01/16 04:19:31;;;;;;;7.05;1.40;;;;;;;;;;5042063;28;20140;-66
2023/01/16 04:21:57;;;;;;;8.55;1.38;;;;;;;;;;5052678;28;20731;-66
2023/01/16 04:24:23;;;;;;;10.30;1.48;;;;;;;;;;5045353;28;20481;-67
2023/01/16 04:26:51;;;;;;;7.75;1.40;;;;;;;;;;5049684;28;20024;-67
2023/01/16 04:29:18;;;;;;;7.05;1.20;;;;;;;;;;5049193;28;20325;-67
2023/01/16 04:31:44;;;;;;;;;;;;;;;;;;5052230;28;20599;-67
2023/01/16 04:34:10;;;;;;;6.65;1.35;;;;;;;;;;5045296;28;19918;-67
2023/01/16 04:36:37;;;;;;;7.88;1.50;;;;;;;;;;5048540;28;20044;-67
2023/01/16 04:39:03;;;;;;;9.07;1.60;;;;;;;;;;5049004;28;20135;-67
2023/01/16 04:41:38;;;;;;;8.15;1.40;;;;;;;;;;5047457;28;20891;-67
2023/01/16 04:44:06;;;;;;;7.70;1.60;;;;;;;;;;5048913;28;20052;-67
2023/01/16 04:46:32;;;;;;;8.60;1.60;;;;;;;;;;5051418;28;20119;-67
2023/01/16 04:48:58;;;;;;;7.32;1.33;;;;;;;;;;5049482;28;20121;-67
2023/01/16 04:51:25;;;;;;;9.55;1.63;;;;;;;;;;5043841;28;20123;-67
2023/01/16 04:53:50;;;;;;;;;;;;;;;;;;5050400;28;20041;-67
2023/01/16 04:56:17;;;;;;;7.22;1.55;;;;;;;;;;5046809;28;20214;-66
2023/01/16 04:58:43;;;;;;;7.60;1.45;;;;;;;;;;5048906;28;20508;-66
2023/01/16 05:01:09;;;;;;;9.15;1.50;;;;;;;;;;5042419;28;20492;-65
2023/01/16 05:03:35;;;;;;;7.95;1.33;;;;;;;;;;5046285;28;20220;-65
2023/01/16 05:06:01;;;;;;;7.85;1.45;;;;;;;;;;5050741;28;20036;-65
2023/01/16 05:08:28;;;;;;;10.75;1.40;;;;;;;;;;5044570;28;20183;-66
2023/01/16 05:10:55;;;;;;;6.30;1.30;;;;;;;;;;5047662;28;20200;-67
2023/01/16 05:13:21;;;;;;;;;;;;;;;;;;5046217;28;20883;-66
2023/01/16 05:15:47;;;;;;;6.50;1.38;;;;;;;;;;5046189;28;19962;-65
2023/01/16 05:18:13;;;;;;;7.15;1.35;;;;;;;;;;5043736;28;20481;-66
2023/01/16 05:20:40;;;;;;;7.35;1.40;;;;;;;;;;5051024;28;20036;-67
2023/01/16 05:23:09;;;;;;;6.47;1.45;;;;;;;;;;5043308;28;20052;-65
2023/01/16 05:25:35;;;;;;;8.60;1.60;;;;;;;;;;5046213;28;20040;-66
2023/01/16 05:28:01;;;;;;;8.80;1.63;;;;;;;;;;5051299;28;20028;-65
2023/01/16 05:30:28;;;;;;;6.93;1.48;;;;;;;;;;5048700;28;20125;-67
2023/01/16 05:32:54;;;;;;;6.63;1.45;;;;;;;;;;5054225;28;20031;-67
2023/01/16 05:35:20;;;;;;;6.53;1.67;;;;;;;;;;5047504;28;20044;-67
2023/01/16 05:37:47;;;;;;;9.00;1.52;;;;;;;;;;5046717;28;20028;-67
2023/01/16 05:40:13;;;;;;;;;;;;;;;;;;5043876;28;20055;-66
2023/01/16 05:42:39;;;;;;;7.93;1.42;;;;;;;;;;5056032;28;19950;-65
2023/01/16 05:45:05;;;;;;;9.65;1.83;;;;;;;;;;5051394;28;20020;-66
2023/01/16 05:47:31;;;;;;;;;;;;;;;;;;5047881;28;20024;-67
2023/01/16 05:49:58;;;;;;;10.52;4.88;;;;;;;;;;5051372;28;19916;-67
2023/01/16 05:52:24;;;;;;;;;;;;;;;;;;5048307;28;20433;-67
2023/01/16 05:54:51;;;;;;;5.75;1.17;;;;;;;;;;5047517;28;20350;-67
2023/01/16 05:57:17;;;;;;;9.10;1.05;;;;;;;;;;5046845;28;20036;-66
2023/01/16 05:59:45;;;;;;;6.72;1.05;;;;;;;;;;5048883;28;20028;-68
2023/01/16 06:02:12;;;;;;;5.90;0.85;;;;;;;;;;5051116;28;20054;-66
2023/01/16 06:04:38;;;;;;;8.07;1.10;;;;;;;;;;5048655;28;20169;-66
2023/01/16 06:07:04;;;;;;;6.93;0.98;;;;;;;;;;5051757;28;20047;-70
2023/01/16 06:09:30;;;;;;;6.65;1.63;;;;;;;;;;5051879;28;20190;-65
2023/01/16 06:11:56;;;;;;;6.80;1.63;;;;;;;;;;5046789;28;20221;-68
2023/01/16 06:14:23;;;;;;;7.03;1.70;;;;;;;;;;5045332;28;20138;-69
2023/01/16 06:16:49;;;;;;;8.57;1.60;;;;;;;;;;5050672;28;20039;-67
2023/01/16 06:19:16;;;;;;;6.03;1.13;;;;;;;;;;5045174;28;20029;-65
2023/01/16 06:21:48;;;;;;;9.25;1.80;;;;;;;;;;5049107;28;20293;-65
2023/01/16 06:24:14;;;;;;;6.25;1.08;;;;;;;;;;5045570;28;20020;-66
2023/01/16 06:26:40;;;;;;;6.45;1.45;;;;;;;;;;5045591;28;20462;-65
2023/01/16 06:29:06;;;;;;;5.88;1.50;;;;;;;;;;5044507;28;20620;-65
2023/01/16 06:31:32;;;;;;;6.57;1.40;;;;;;;;;;5050493;28;20032;-68
2023/01/16 06:33:58;;;;;;;5.72;1.38;;;;;;;;;;5048092;28;20032;-67
2023/01/16 06:36:25;;;;;;;6.28;1.30;;;;;;;;;;5046153;28;21576;-68
2023/01/16 06:38:51;;;;;;;9.07;1.27;;;;;;;;;;5048271;28;20032;-67
2023/01/16 06:41:17;;;;;;;8.52;1.50;;;;;;;;;;5043281;28;20038;-70
2023/01/16 06:43:43;;;;;;;7.43;1.20;;;;;;;;;;5044078;28;20063;-64
2023/01/16 06:46:09;;;;;;;7.22;1.30;;;;;;;;;;5044054;28;20236;-71
2023/01/16 06:48:36;;;;;;;6.70;1.20;;;;;;;;;;5044007;28;20036;-66
2023/01/16 06:51:02;;;;;;;9.52;1.17;;;;;;;;;;5044934;28;20032;-69
2023/01/16 06:53:28;;;;;;;5.95;1.15;;;;;;;;;;5042424;28;20465;-67
2023/01/16 06:55:54;;;;;;;6.78;1.30;;;;;;;;;;5045942;28;20050;-69
2023/01/16 06:58:21;;;;;;;6.80;1.45;;;;;;;;;;5046814;28;20040;-67
2023/01/16 07:00:51;;;;;;;5.28;1.15;;;;;;;;;;5045637;28;20520;-66
2023/01/16 07:03:18;;;;;;;5.47;1.10;;;;;;;;;;5042016;28;20055;-65
2023/01/16 07:05:44;;;;;;;6.10;1.23;;;;;;;;;;5046441;28;21624;-64
2023/01/16 07:08:11;;;;;;;5.43;1.40;;;;;;;;;;5038988;28;20339;-71
2023/01/16 07:10:37;;;;;;;8.45;1.42;;;;;;;;;;5050277;28;20028;-65
2023/01/16 07:13:03;;;;;;;;;;;;;;;;;;5047292;28;20483;-67
2023/01/16 07:23:52;;;;;;;10.02;1.90;;;;;;;;;;5046733;28;20047;-70
2023/01/16 07:26:19;;;;;;;9.15;2.30;;;;;;;;;;5042073;28;20036;-67
2023/01/16 07:28:46;;;;;;;9.80;2.45;;;;;;;;;;5046814;28;20056;-67
2023/01/16 07:31:12;;;;;;;10.38;3.20;;;;;;;;;;5049487;28;20060;-69
2023/01/16 07:33:38;;;;;;;;;;;;;;;;;;5049168;28;20119;-69
2023/01/16 07:36:05;;;;;;;11.38;2.90;;;;;;;;;;5048703;28;20034;-66
2023/01/16 07:38:31;;;;;;;10.77;2.28;;;;;;;;;;5049990;28;20036;-66
2023/01/16 07:40:57;;;;;;;7.97;2.20;;;;;;;;;;5047631;28;20050;-70
2023/01/16 07:43:24;;;;;;;10.38;2.80;;;;;;;;;;5052319;28;20028;-67
2023/01/16 07:45:52;;;;;;;11.13;3.75;;;;;;;;;;5053162;28;20028;-66
2023/01/16 07:48:24;;;;;;;13.50;3.78;;;;;;;;;;5052616;28;20429;-68
2023/01/16 07:50:55;;;;;;;11.25;3.40;;;;;;;;;;5051741;28;20036;-70
2023/01/16 07:53:22;;;;;;;9.55;2.88;;;;;;;;;;5043907;28;20040;-67
2023/01/16 07:55:49;;;;;;;8.80;2.40;;;;;;;;;;5046853;28;20451;-66
2023/01/16 07:58:16;;;;;;;10.80;2.42;;;;;;;;;;5043089;28;20348;-67
2023/01/16 08:00:42;;;;;;;8.68;2.10;;;;;;;;;;5047363;28;20043;-67
2023/01/16 08:03:08;;;;;;;16.27;2.75;;;;;;;;;;5039944;28;20467;-67
2023/01/16 08:05:35;;;;;;;11.82;2.70;;;;;;;;;;5050955;28;20034;-68
2023/01/16 08:08:01;;;;;;;14.35;3.10;;;;;;;;;;5045434;28;20028;-66
2023/01/16 08:10:27;;;;;;;16.95;3.20;;;;;;;;;;5047287;28;20028;-66
2023/01/16 08:12:53;;;;;;;12.95;3.28;;;;;;;;;;5049861;28;20062;-66
2023/01/16 08:15:19;;;;;;;20.75;3.78;;;;;;;;;;5042462;28;20033;-66
2023/01/16 08:17:45;;;;;;;19.77;4.20;;;;;;;;;;5050679;28;20034;-70
2023/01/16 08:20:12;;;;;;;13.25;2.90;;;;;;;;;;5043720;28;20033;-65
2023/01/16 08:22:38;;;;;;;;;;;;;;;;;;5050406;28;20033;-66
2023/01/16 08:25:04;;;;;;;12.73;3.28;;;;;;;;;;5048437;28;19919;-66
2023/01/16 08:27:30;;;;;;;;;;;;;;;;;;5049508;28;20020;-66
2023/01/16 08:29:56;;;;;;;14.68;3.22;;;;;;;;;;5047396;28;20144;-65
2023/01/16 08:32:22;;;;;;;14.27;3.15;;;;;;;;;;5045860;28;20562;-66
2023/01/16 08:34:49;;;;;;;14.20;3.75;;;;;;;;;;5046030;28;20147;-66
2023/01/16 08:37:15;;;;;;;13.32;3.70;;;;;;;;;;5041768;28;20040;-67
2023/01/16 08:39:41;;;;;;;17.02;4.20;;;;;;;;;;5044072;28;20522;-67
2023/01/16 08:53:07;;;;;;;14.68;3.38;;;;;;;;;;5044817;28;20093;-67
2023/01/16 08:55:33;;;;;;;12.73;2.45;;;;;;;;;;5042219;28;20028;-62
2023/01/16 08:57:59;;;;;;;14.50;2.83;;;;;;;;;;5046309;28;20470;-67
2023/01/16 09:00:25;;;;;;;;;;;;;;;;;;5047571;28;21191;-66
2023/01/16 09:02:52;;;;;;;12.90;2.60;;;;;;;;;;5047616;28;20340;-67
2023/01/16 09:05:18;;;;;;;16.30;3.13;;;;;;;;;;5042662;28;20040;-67
2023/01/16 09:07:45;;;;;;;14.35;2.75;;;;;;;;;;5047950;28;20103;-67
2023/01/16 09:10:12;;;;;;;14.23;3.30;;;;;;;;;;5046556;28;20040;-67
2023/01/16 09:15:24;;;;;;;14.77;3.78;;;;;;;;;;5043732;28;20070;-66
2023/01/16 09:17:50;;;;;;;;;;;;;;;;;;5047703;28;20025;-67
2023/01/16 09:20:16;;;;;;;16.20;3.42;;;;;;;;;;5040690;28;19927;-66
2023/01/16 09:22:42;;;;;;;17.60;3.40;;;;;;;;;;5043312;28;20042;-67
2023/01/16 09:25:08;;;;;;;13.77;2.97;;;;;;;;;;5047612;28;20027;-67
2023/01/16 09:27:34;;;;;;;;;;;;;;;;;;5043905;28;20032;-66
2023/01/16 09:30:01;;;;;;;13.38;2.70;;;;;;;;;;5048595;28;20343;-66
2023/01/16 09:32:27;;;;;;;13.45;2.60;;;;;;;;;;5047894;28;20032;-67
2023/01/16 09:34:53;;;;;;;12.18;2.60;;;;;;;;;;5046854;28;20500;-69
2023/01/16 09:37:19;;;;;;;13.93;3.05;;;;;;;;;;5024518;28;20071;-69
2023/01/16 09:39:46;;;;;;;15.52;3.13;;;;;;;;;;5040365;28;20028;-67
2023/01/16 09:44:59;;;;;;;22.08;3.45;;;;;;;;;;5053380;28;20452;-67
2023/01/16 09:47:26;;;;;;;14.68;3.05;;;;;;;;;;5054457;28;20572;-65
2023/01/16 09:49:53;;;;;;;14.55;2.50;;;;;;;;;;5054806;28;20367;-67
2023/01/16 10:00:49;;;;;;;18.42;3.70;;;;;;;;;;5056353;28;20058;-67
2023/01/16 10:03:15;;;;;;;21.65;3.70;;;;;;;;;;5056109;28;20589;-67
2023/01/16 10:05:48;;;;;;;16.10;3.20;;;;;;;;;;5057510;28;20185;-67
2023/01/16 10:08:17;;;;;;;14.98;3.20;;;;;;;;;;5049215;28;20060;-67
2023/01/16 10:10:50;;;;;;;14.77;3.10;;;;;;;;;;5055627;28;20498;-65
2023/01/16 10:13:39;;;;;;;18.67;3.22;;;;;;;;;;5022373;28;20044;-65
2023/01/16 10:16:24;;;;;;;13.20;2.78;;;;;;;;;;5016997;28;20052;-65
2023/01/16 10:19:07;;;;;;;12.45;2.55;;;;;;;;;;5028930;28;20032;-65
2023/01/16 10:21:33;;;;;;;16.27;2.83;;;;;;;;;;5015555;28;20039;-67
2023/01/16 10:24:10;;;;;;;17.13;4.30;;;;;;;;;;5015553;28;20764;-66
2023/01/16 10:26:40;;;;;;;12.93;3.75;;;;;;;;;;5015919;28;20028;-66
2023/01/16 10:29:18;;;;;;;15.70;4.00;;;;;;;;;;5015792;28;20032;-66
2023/01/16 10:32:04;;;;;;;16.90;3.08;;;;;;;;;;5016683;28;20089;-66
2023/01/16 10:34:40;;;;;;;17.20;3.10;;;;;;;;;;5016967;28;20040;-67
2023/01/16 10:37:06;;;;;;;12.75;2.60;;;;;;;;;;5020468;28;20060;-66
2023/01/16 10:39:34;;;;;;;11.85;2.38;;;;;;;;;;5043992;28;20481;-66
2023/01/16 10:50:40;;;;;;;12.93;2.63;;;;;;;;;;5045138;28;20085;-65
2023/01/16 10:53:08;;;;;;;13.88;2.75;;;;;;;;;;5051475;28;20361;-71
2023/01/16 10:55:38;;;;;;;13.68;2.75;;;;;;;;;;5047183;28;20035;-71
2023/01/16 10:58:23;;;;;;;12.98;2.70;;;;;;;;;;5047123;28;20685;-71
2023/01/16 11:00:50;;;;;;;12.18;2.70;;;;;;;;;;5051505;28;20364;-72
2023/01/16 11:03:42;;;;;;;13.77;2.45;;;;;;;;;;5022322;28;20032;-71
2023/01/16 11:06:10;;;;;;;10.90;2.38;;;;;;;;;;5040581;28;20552;-70
2023/01/16 11:08:37;;;;;;;16.58;3.00;;;;;;;;;;5057813;28;20032;-72
2023/01/16 11:11:03;;;;;;;10.57;2.30;;;;;;;;;;5060347;28;20031;-71
2023/01/16 11:18:59;;;;;;;12.32;2.30;;;;;;;;;;5055521;28;20043;-71
2023/01/16 11:21:26;;;;;;;12.25;2.42;;;;;;;;;;5057257;28;22101;-72
2023/01/16 11:23:57;;;;;;;10.48;2.13;;;;;;;;;;5055149;28;20372;-72
2023/01/16 11:26:24;;;;;;;14.82;5.30;;;;;;;;;;5049189;28;20082;-71
2023/01/16 11:28:50;;;;;;;12.43;3.13;;;;;;;;;;5051739;28;20028;-71
2023/01/16 11:31:25;;;;;;;13.13;2.83;;;;;;;;;;5044333;28;20099;-70
2023/01/16 11:34:00;;;;;;;10.32;2.53;;;;;;;;;;5049869;28;20032;-71
2023/01/16 11:36:28;;;;;;;14.57;3.28;;;;;;;;;;5047191;28;20052;-71
2023/01/16 11:38:54;;;;;;;9.00;1.95;;;;;;;;;;5049399;28;20042;-70
2023/01/16 11:41:23;;;;;;;11.32;2.20;;;;;;;;;;5047459;28;20136;-71
2023/01/16 11:47:03;;;;;;;10.40;2.00;;;;;;;;;;5044133;28;20055;-71
2023/01/16 11:49:40;;;;;;;10.07;1.92;;;;;;;;;;5045791;28;20079;-71
2023/01/16 11:52:06;;;;;;;;;;;;;;;;;;5046160;28;20667;-71
2023/01/16 11:54:33;;;;;;;8.30;2.30;;;;;;;;;;5048239;28;20400;-71
2023/01/16 11:57:10;;;;;;;12.85;2.17;;;;;;;;;;5042528;28;20085;-72
2023/01/16 11:59:52;;;;;;;9.50;2.20;;;;;;;;;;5025461;28;20967;-71
2023/01/16 12:02:25;;;;;;;8.65;1.98;;;;;;;;;;5022509;28;20899;-72
2023/01/16 12:07:53;;;;;;;9.57;2.08;;;;;;;;;;5039714;28;20129;-70
2023/01/16 12:10:19;;;;;;;11.15;2.20;;;;;;;;;;5037049;28;20047;-70
2023/01/16 12:15:35;;;;;;;10.57;2.05;;;;;;;;;;5040146;28;20196;-66
2023/01/16 12:18:06;;;;;;;12.07;2.22;;;;;;;;;;5041332;28;20035;-67
2023/01/16 12:20:34;;;;;;;12.93;2.22;;;;;;;;;;5044497;28;20033;-67
2023/01/16 12:23:19;;;;;;;13.15;2.22;;;;;;;;;;5050380;28;20283;-68
2023/01/16 12:25:45;;;;;;;9.65;1.90;;;;;;;;;;5046718;28;20530;-68
2023/01/16 12:28:11;;;;;;;8.13;1.83;;;;;;;;;;5047632;28;20040;-67
2023/01/16 12:30:37;;;;;;;13.32;2.25;;;;;;;;;;5045598;28;20027;-68
2023/01/16 12:33:21;;;;;;;9.85;2.10;;;;;;;;;;5051287;28;20028;-68
2023/01/16 12:35:50;;;;;;;9.57;1.95;;;;;;;;;;5046937;28;20297;-67
2023/01/16 12:38:18;;;;;;;14.52;2.67;;;;;;;;;;5043470;28;20884;-68
2023/01/16 12:40:50;;;;;;;13.05;2.22;;;;;;;;;;5044533;28;20040;-69
2023/01/16 12:43:31;;;;;;;11.48;2.38;;;;;;;;;;5046217;28;20079;-67
2023/01/16 12:46:02;;;;;;;10.95;2.00;;;;;;;;;;5048182;28;20873;-67
2023/01/16 12:48:37;;;;;;;9.07;2.00;;;;;;;;;;5048687;28;20116;-70
2023/01/16 12:51:12;;;;;;;11.90;1.90;;;;;;;;;;5047637;28;20025;-69
2023/01/16 12:53:57;;;;;;;11.10;2.08;;;;;;;;;;5047470;28;20596;-64
2023/01/16 12:56:48;;;;;;;10.60;2.10;;;;;;;;;;5040478;28;20330;-66
2023/01/16 12:59:20;;;;;;;12.38;2.60;;;;;;;;;;5043845;28;20062;-65
2023/01/16 13:01:48;;;;;;;9.38;1.92;;;;;;;;;;5045044;28;20700;-64
2023/01/16 13:04:20;;;;;;;11.35;2.05;;;;;;;;;;5045086;28;20024;-66
2023/01/16 13:06:47;;;;;;;14.65;2.25;;;;;;;;;;5047946;28;20060;-66
2023/01/16 13:09:35;;;;;;;11.00;1.90;;;;;;;;;;5047255;28;20028;-65
2023/01/16 13:14:59;;;;;;;11.20;2.30;;;;;;;;;;5047342;28;20039;-64
2023/01/16 13:17:27;;;;;;;10.43;2.08;;;;;;;;;;5046166;28;20040;-67
2023/01/16 13:19:54;;;;;;;9.40;2.00;;;;;;;;;;5045590;28;20094;-64
2023/01/16 13:22:22;;;;;;;12.10;2.30;;;;;;;;;;5043000;28;20051;-64
2023/01/16 13:25:17;;;;;;;10.45;2.08;;;;;;;;;;5047128;28;20038;-64
2023/01/16 13:27:47;;;;;;;11.63;2.03;;;;;;;;;;5045453;28;20113;-64
2023/01/16 13:30:15;;;;;;;11.70;2.65;;;;;;;;;;5044495;28;20599;-64
2023/01/16 13:33:03;;;;;;;12.23;2.60;;;;;;;;;;5053397;28;20344;-67
2023/01/16 13:35:38;;;;;;;9.52;2.38;;;;;;;;;;5055929;28;20119;-67
2023/01/16 13:38:13;;;;;;;10.20;2.13;;;;;;;;;;5045886;28;20024;-67
2023/01/16 13:40:58;;;;;;;11.83;2.60;;;;;;;;;;5049549;28;20032;-65
2023/01/16 13:46:14;;;;;;;9.52;2.22;;;;;;;;;;5045527;28;20047;-67
2023/01/16 13:48:40;;;;;;;14.60;2.75;;;;;;;;;;5052381;28;20028;-65
2023/01/16 13:51:13;;;;;;;11.90;2.85;;;;;;;;;;5046271;28;20021;-65
2023/01/16 13:53:40;;;;;;;12.88;2.30;;;;;;;;;;5048169;28;20040;-65
2023/01/16 13:56:09;;;;;;;13.88;2.58;;;;;;;;;;5043813;28;20353;-67
2023/01/16 13:58:43;;;;;;;12.05;2.47;;;;;;;;;;5049590;28;20749;-66
2023/01/16 14:01:29;;;;;;;11.88;2.70;;;;;;;;;;5045780;28;20127;-66
2023/01/16 14:04:27;;;;;;;11.98;2.13;;;;;;;;;;5051192;28;20301;-67
2023/01/16 14:10:15;;;;;;;11.90;2.40;;;;;;;;;;5056572;28;20071;-65
2023/01/16 14:12:43;;;;;;;12.27;2.55;;;;;;;;;;5058919;28;20055;-65
2023/01/16 14:18:15;;;;;;;10.73;2.17;;;;;;;;;;5059764;28;20050;-67
2023/01/16 14:20:47;;;;;;;11.88;2.90;;;;;;;;;;5051076;28;20368;-69
2023/01/16 14:26:02;;;;;;;13.07;3.33;;;;;;;;;;5056293;28;20058;-66
2023/01/16 14:28:31;;;;;;;13.68;3.35;;;;;;;;;;5052552;28;20576;-66
2023/01/16 14:30:58;;;;;;;10.50;2.50;;;;;;;;;;5057114;28;20035;-67
2023/01/16 14:33:25;;;;;;;13.90;2.83;;;;;;;;;;5054146;28;20042;-67
2023/01/16 14:35:53;;;;;;;13.02;2.83;;;;;;;;;;5053574;28;20035;-67
2023/01/16 14:38:20;;;;;;;13.02;2.92;;;;;;;;;;5053112;28;20239;-67
2023/01/16 14:55:21;;;;;;;15.90;3.60;;;;;;;;;;5049936;28;20568;-67
2023/01/16 14:57:49;;;;;;;10.95;2.92;;;;;;;;;;5054345;28;20059;-65
2023/01/16 15:00:18;;;;;;;18.13;3.38;;;;;;;;;;5053428;28;20036;-66
2023/01/16 15:02:44;;;;;;;13.82;2.97;;;;;;;;;;5063697;28;20020;-65
2023/01/16 15:05:14;;;;;;;13.25;3.35;;;;;;;;;;5051792;28;20085;-65
2023/01/16 15:07:51;;;;;;;14.77;3.00;;;;;;;;;;5054388;28;20470;-66
2023/01/16 15:10:20;;;;;;;16.80;3.55;;;;;;;;;;5053763;28;20760;-66
2023/01/16 15:12:46;;;;;;;13.75;3.30;;;;;;;;;;5054004;28;20584;-67
2023/01/16 15:15:20;;;;;;;14.10;3.13;;;;;;;;;;5056824;28;20039;-67
2023/01/16 15:23:27;;;;;;;17.38;3.40;;;;;;;;;;5050705;28;20116;-65
2023/01/16 15:26:12;;;;;;;15.02;2.90;;;;;;;;;;5054561;28;20322;-67
2023/01/16 15:28:44;;;;;;;11.88;3.22;;;;;;;;;;5059979;28;20042;-66
2023/01/16 15:31:19;;;;;;;14.00;3.47;;;;;;;;;;5052369;28;20080;-66
2023/01/16 15:33:50;;;;;;;14.60;3.70;;;;;;;;;;5052765;28;20052;-66
2023/01/16 15:36:19;;;;;;;12.38;3.03;;;;;;;;;;5055848;28;20362;-67
2023/01/16 15:39:05;;;;;;;12.85;3.22;;;;;;;;;;5059345;28;20107;-64
2023/01/16 15:47:09;;;;;;;14.48;3.50;;;;;;;;;;5053234;28;20058;-64
2023/01/16 15:49:56;;;;;;;14.73;3.83;;;;;;;;;;5056125;28;20049;-65
2023/01/16 15:52:26;;;;;;;15.35;3.90;;;;;;;;;;5054270;28;20032;-65
2023/01/16 15:54:53;;;;;;;16.00;3.90;;;;;;;;;;5057779;28;20051;-66
2023/01/16 15:57:19;;;;;;;12.05;2.72;;;;;;;;;;5058243;28;20528;-66
2023/01/16 15:59:52;;;;;;;14.93;3.60;;;;;;;;;;5063268;28;20138;-65
2023/01/16 16:02:20;;;;;;;12.50;2.90;;;;;;;;;;5055454;28;20140;-65
2023/01/16 16:04:46;;;;;;;11.98;3.03;;;;;;;;;;5059675;28;20025;-65
2023/01/16 16:07:13;;;;;;;18.40;2.95;;;;;;;;;;5054605;28;20036;-64
2023/01/16 16:09:42;;;;;;;14.20;2.72;;;;;;;;;;5060954;28;20489;-64
2023/01/16 16:12:09;;;;;;;12.00;3.05;;;;;;;;;;5058803;28;20123;-64
2023/01/16 16:20:24;;;;;;;19.65;3.78;;;;;;;;;;5057301;28;20393;-66
2023/01/16 16:22:51;;;;;;;17.70;3.55;;;;;;;;;;5063682;28;20035;-65
2023/01/16 16:25:37;;;;;;;19.35;5.32;;;;;;;;;;5059105;28;20111;-64
2023/01/16 16:28:04;;;;;;;15.50;4.95;;;;;;;;;;5060107;28;20047;-63
2023/01/16 16:30:31;;;;;;;14.50;4.18;;;;;;;;;;5061824;28;20458;-65
2023/01/16 16:32:57;;;;;;;16.13;3.97;;;;;;;;;;5051532;28;20024;-66
2023/01/16 16:35:23;;;;;;;;;;;;;;;;;;5054693;28;20113;-64
2023/01/16 16:37:49;;;;;;;13.65;4.60;;;;;;;;;;5061078;28;19916;-64
2023/01/16 16:40:15;;;;;;;;;;;;;;;;;;5059564;28;20152;-64
2023/01/16 16:42:44;;;;;;;16.40;4.35;;;;;;;;;;5057847;28;20002;-66
2023/01/16 16:45:14;;;;;;;15.13;3.78;;;;;;;;;;5050557;28;20589;-65